sensor_id;sensor_type;location;lat;lon;timestamp;temperature;humidity
75457;SHT31;64036;48.266;14.192;2024-02-04T00:01:25;8.00;78.88
75457;SHT31;64036;48.266;14.192;2024-02-04T00:03:50;7.98;78.99
75457;SHT31;64036;48.266;14.192;2024-02-04T00:06:21;7.95;79.08
75457;SHT31;64036;48.266;14.192;2024-02-04T00:08:47;7.92;79.25
75457;SHT31;64036;48.266;14.192;2024-02-04T00:11:13;7.90;79.44
75457;SHT31;64036;48.266;14.192;2024-02-04T00:13:38;7.87;79.57
75457;SHT31;64036;48.266;14.192;2024-02-04T00:16:07;7.84;79.73
75457;SHT31;64036;48.266;14.192;2024-02-04T00:18:33;7.81;79.94
75457;SHT31;64036;48.266;14.192;2024-02-04T00:20:59;7.78;80.09
75457;SHT31;64036;48.266;14.192;2024-02-04T00:23:25;7.76;80.19
75457;SHT31;64036;48.266;14.192;2024-02-04T00:25:56;7.73;80.36
75457;SHT31;64036;48.266;14.192;2024-02-04T00:28:21;7.69;80.51
75457;SHT31;64036;48.266;14.192;2024-02-04T00:30:52;7.67;80.62
75457;SHT31;64036;48.266;14.192;2024-02-04T00:33:23;7.66;80.80
75457;SHT31;64036;48.266;14.192;2024-02-04T00:35:49;7.63;81.05
75457;SHT31;64036;48.266;14.192;2024-02-04T00:38:17;7.60;81.09
75457;SHT31;64036;48.266;14.192;2024-02-04T00:40:43;7.59;81.16
75457;SHT31;64036;48.266;14.192;2024-02-04T00:43:09;7.59;81.28
75457;SHT31;64036;48.266;14.192;2024-02-04T00:45:34;7.57;81.34
75457;SHT31;64036;48.266;14.192;2024-02-04T00:48:05;7.57;81.41
75457;SHT31;64036;48.266;14.192;2024-02-04T00:50:33;7.56;81.46
75457;SHT31;64036;48.266;14.192;2024-02-04T00:52:59;7.54;81.52
75457;SHT31;64036;48.266;14.192;2024-02-04T00:55:27;7.52;81.63
75457;SHT31;64036;48.266;14.192;2024-02-04T00:57:53;7.51;81.69
75457;SHT31;64036;48.266;14.192;2024-02-04T01:00:24;7.50;81.71
75457;SHT31;64036;48.266;14.192;2024-02-04T01:02:49;7.49;81.80
75457;SHT31;64036;48.266;14.192;2024-02-04T01:05:18;7.47;81.81
75457;SHT31;64036;48.266;14.192;2024-02-04T01:07:46;7.47;81.90
75457;SHT31;64036;48.266;14.192;2024-02-04T01:10:12;7.45;82.01
75457;SHT31;64036;48.266;14.192;2024-02-04T01:12:38;7.44;82.08
75457;SHT31;64036;48.266;14.192;2024-02-04T01:15:04;7.45;82.16
75457;SHT31;64036;48.266;14.192;2024-02-04T01:17:32;7.44;82.20
75457;SHT31;64036;48.266;14.192;2024-02-04T01:20:04;7.43;82.23
75457;SHT31;64036;48.266;14.192;2024-02-04T01:22:33;7.43;82.25
75457;SHT31;64036;48.266;14.192;2024-02-04T01:25:04;7.43;82.29
75457;SHT31;64036;48.266;14.192;2024-02-04T01:27:32;7.43;82.33
75457;SHT31;64036;48.266;14.192;2024-02-04T01:30:00;7.42;82.41
75457;SHT31;64036;48.266;14.192;2024-02-04T01:32:29;7.41;82.48
75457;SHT31;64036;48.266;14.192;2024-02-04T01:35:01;7.41;82.52
75457;SHT31;64036;48.266;14.192;2024-02-04T01:37:27;7.41;82.58
75457;SHT31;64036;48.266;14.192;2024-02-04T01:39:58;7.41;82.61
75457;SHT31;64036;48.266;14.192;2024-02-04T01:42:29;7.41;82.66
75457;SHT31;64036;48.266;14.192;2024-02-04T01:44:54;7.40;82.61
75457;SHT31;64036;48.266;14.192;2024-02-04T01:47:21;7.42;82.63
75457;SHT31;64036;48.266;14.192;2024-02-04T01:49:49;7.43;82.56
75457;SHT31;64036;48.266;14.192;2024-02-04T01:52:14;7.43;82.53
75457;SHT31;64036;48.266;14.192;2024-02-04T01:54:40;7.44;82.54
75457;SHT31;64036;48.266;14.192;2024-02-04T01:57:08;7.43;82.56
75457;SHT31;64036;48.266;14.192;2024-02-04T01:59:35;7.44;82.60
75457;SHT31;64036;48.266;14.192;2024-02-04T02:02:01;7.44;82.60
75457;SHT31;64036;48.266;14.192;2024-02-04T02:04:34;7.45;82.55
75457;SHT31;64036;48.266;14.192;2024-02-04T02:07:02;7.46;82.52
75457;SHT31;64036;48.266;14.192;2024-02-04T02:09:31;7.46;82.51
75457;SHT31;64036;48.266;14.192;2024-02-04T02:14:33;7.47;82.51
75457;SHT31;64036;48.266;14.192;2024-02-04T02:17:06;7.47;82.50
75457;SHT31;64036;48.266;14.192;2024-02-04T02:20:00;7.47;82.50
75457;SHT31;64036;48.266;14.192;2024-02-04T02:25:39;7.47;82.59
75457;SHT31;64036;48.266;14.192;2024-02-04T02:28:06;7.46;82.60
75457;SHT31;64036;48.266;14.192;2024-02-04T02:30:34;7.46;82.60
75457;SHT31;64036;48.266;14.192;2024-02-04T02:33:00;7.44;82.67
75457;SHT31;64036;48.266;14.192;2024-02-04T02:35:26;7.43;82.70
75457;SHT31;64036;48.266;14.192;2024-02-04T02:40:58;7.44;82.77
75457;SHT31;64036;48.266;14.192;2024-02-04T02:43:30;7.43;82.78
75457;SHT31;64036;48.266;14.192;2024-02-04T02:46:08;7.43;82.85
75457;SHT31;64036;48.266;14.192;2024-02-04T02:48:36;7.43;82.84
75457;SHT31;64036;48.266;14.192;2024-02-04T02:51:07;7.42;82.86
75457;SHT31;64036;48.266;14.192;2024-02-04T02:53:37;7.43;82.88
75457;SHT31;64036;48.266;14.192;2024-02-04T02:56:06;7.43;82.85
75457;SHT31;64036;48.266;14.192;2024-02-04T02:58:37;7.45;82.80
75457;SHT31;64036;48.266;14.192;2024-02-04T03:01:03;7.45;82.80
75457;SHT31;64036;48.266;14.192;2024-02-04T03:03:42;7.46;82.75
75457;SHT31;64036;48.266;14.192;2024-02-04T03:06:11;7.47;82.72
75457;SHT31;64036;48.266;14.192;2024-02-04T03:08:41;7.45;82.78
75457;SHT31;64036;48.266;14.192;2024-02-04T03:11:16;7.44;82.80
75457;SHT31;64036;48.266;14.192;2024-02-04T03:13:41;7.43;82.88
75457;SHT31;64036;48.266;14.192;2024-02-04T03:16:13;7.44;82.90
75457;SHT31;64036;48.266;14.192;2024-02-04T03:18:39;7.43;82.93
75457;SHT31;64036;48.266;14.192;2024-02-04T03:21:15;7.43;82.93
75457;SHT31;64036;48.266;14.192;2024-02-04T03:23:41;7.44;82.90
75457;SHT31;64036;48.266;14.192;2024-02-04T03:26:07;7.45;82.83
75457;SHT31;64036;48.266;14.192;2024-02-04T03:28:34;7.46;82.81
75457;SHT31;64036;48.266;14.192;2024-02-04T03:31:00;7.49;82.78
75457;SHT31;64036;48.266;14.192;2024-02-04T03:33:35;7.49;82.72
75457;SHT31;64036;48.266;14.192;2024-02-04T03:36:01;7.49;82.70
75457;SHT31;64036;48.266;14.192;2024-02-04T03:38:37;7.50;82.68
75457;SHT31;64036;48.266;14.192;2024-02-04T03:41:05;7.51;82.67
75457;SHT31;64036;48.266;14.192;2024-02-04T03:43:36;7.52;82.60
75457;SHT31;64036;48.266;14.192;2024-02-04T03:46:05;7.52;82.61
75457;SHT31;64036;48.266;14.192;2024-02-04T03:48:33;7.52;82.60
75457;SHT31;64036;48.266;14.192;2024-02-04T03:50:59;7.53;82.60
75457;SHT31;64036;48.266;14.192;2024-02-04T03:53:27;7.52;82.65
75457;SHT31;64036;48.266;14.192;2024-02-04T03:55:53;7.53;82.66
75457;SHT31;64036;48.266;14.192;2024-02-04T03:58:19;7.52;82.67
75457;SHT31;64036;48.266;14.192;2024-02-04T04:00:48;7.53;82.70
75457;SHT31;64036;48.266;14.192;2024-02-04T04:03:16;7.53;82.68
75457;SHT31;64036;48.266;14.192;2024-02-04T04:05:46;7.53;82.70
75457;SHT31;64036;48.266;14.192;2024-02-04T04:08:15;7.52;82.70
75457;SHT31;64036;48.266;14.192;2024-02-04T04:10:43;7.51;82.77
75457;SHT31;64036;48.266;14.192;2024-02-04T04:13:12;7.49;82.84
75457;SHT31;64036;48.266;14.192;2024-02-04T04:15:42;7.47;82.97
75457;SHT31;64036;48.266;14.192;2024-02-04T04:18:10;7.47;83.00
75457;SHT31;64036;48.266;14.192;2024-02-04T04:20:40;7.45;83.03
75457;SHT31;64036;48.266;14.192;2024-02-04T04:23:06;7.44;83.09
75457;SHT31;64036;48.266;14.192;2024-02-04T04:25:34;7.43;83.11
75457;SHT31;64036;48.266;14.192;2024-02-04T04:28:06;7.43;83.14
75457;SHT31;64036;48.266;14.192;2024-02-04T04:30:31;7.43;83.19
75457;SHT31;64036;48.266;14.192;2024-02-04T04:33:02;7.43;83.22
75457;SHT31;64036;48.266;14.192;2024-02-04T04:35:28;7.42;83.22
75457;SHT31;64036;48.266;14.192;2024-02-04T04:38:00;7.44;83.22
75457;SHT31;64036;48.266;14.192;2024-02-04T04:40:25;7.43;83.24
75457;SHT31;64036;48.266;14.192;2024-02-04T04:42:51;7.43;83.26
75457;SHT31;64036;48.266;14.192;2024-02-04T04:45:22;7.44;83.24
75457;SHT31;64036;48.266;14.192;2024-02-04T04:47:47;7.44;83.20
75457;SHT31;64036;48.266;14.192;2024-02-04T04:50:19;7.45;83.20
75457;SHT31;64036;48.266;14.192;2024-02-04T04:52:48;7.45;83.18
75457;SHT31;64036;48.266;14.192;2024-02-04T04:55:18;7.46;83.13
75457;SHT31;64036;48.266;14.192;2024-02-04T04:57:44;7.46;83.11
75457;SHT31;64036;48.266;14.192;2024-02-04T05:00:16;7.46;83.17
75457;SHT31;64036;48.266;14.192;2024-02-04T05:02:45;7.46;83.17
75457;SHT31;64036;48.266;14.192;2024-02-04T05:05:11;7.47;83.09
75457;SHT31;64036;48.266;14.192;2024-02-04T05:07:42;7.48;83.03
75457;SHT31;64036;48.266;14.192;2024-02-04T05:10:13;7.49;82.96
75457;SHT31;64036;48.266;14.192;2024-02-04T05:12:39;7.49;82.92
75457;SHT31;64036;48.266;14.192;2024-02-04T05:15:08;7.50;82.89
75457;SHT31;64036;48.266;14.192;2024-02-04T05:17:36;7.51;82.80
75457;SHT31;64036;48.266;14.192;2024-02-04T05:20:02;7.53;82.77
75457;SHT31;64036;48.266;14.192;2024-02-04T05:22:29;7.53;82.71
75457;SHT31;64036;48.266;14.192;2024-02-04T05:24:55;7.54;82.66
75457;SHT31;64036;48.266;14.192;2024-02-04T05:27:23;7.54;82.60
75457;SHT31;64036;48.266;14.192;2024-02-04T05:29:54;7.55;82.58
75457;SHT31;64036;48.266;14.192;2024-02-04T05:32:28;7.56;82.55
75457;SHT31;64036;48.266;14.192;2024-02-04T05:34:54;7.56;82.50
75457;SHT31;64036;48.266;14.192;2024-02-04T05:37:22;7.55;82.47
75457;SHT31;64036;48.266;14.192;2024-02-04T05:39:48;7.56;82.39
75457;SHT31;64036;48.266;14.192;2024-02-04T05:42:13;7.57;82.39
75457;SHT31;64036;48.266;14.192;2024-02-04T05:44:41;7.57;82.31
75457;SHT31;64036;48.266;14.192;2024-02-04T05:47:07;7.59;82.26
75457;SHT31;64036;48.266;14.192;2024-02-04T05:49:33;7.60;82.20
75457;SHT31;64036;48.266;14.192;2024-02-04T05:51:58;7.59;82.20
75457;SHT31;64036;48.266;14.192;2024-02-04T05:54:24;7.59;82.20
75457;SHT31;64036;48.266;14.192;2024-02-04T05:56:49;7.59;82.20
75457;SHT31;64036;48.266;14.192;2024-02-04T05:59:15;7.60;82.17
75457;SHT31;64036;48.266;14.192;2024-02-04T06:01:41;7.61;82.12
75457;SHT31;64036;48.266;14.192;2024-02-04T06:04:10;7.60;82.10
75457;SHT31;64036;48.266;14.192;2024-02-04T06:06:36;7.60;82.10
75457;SHT31;64036;48.266;14.192;2024-02-04T06:09:07;7.61;82.10
75457;SHT31;64036;48.266;14.192;2024-02-04T06:11:37;7.61;82.10
75457;SHT31;64036;48.266;14.192;2024-02-04T06:14:06;7.61;82.10
75457;SHT31;64036;48.266;14.192;2024-02-04T06:16:37;7.63;82.10
75457;SHT31;64036;48.266;14.192;2024-02-04T06:19:03;7.64;82.05
75457;SHT31;64036;48.266;14.192;2024-02-04T06:21:31;7.64;82.00
75457;SHT31;64036;48.266;14.192;2024-02-04T06:23:59;7.66;82.00
75457;SHT31;64036;48.266;14.192;2024-02-04T06:26:25;7.65;81.95
75457;SHT31;64036;48.266;14.192;2024-02-04T06:28:50;7.65;81.90
75457;SHT31;64036;48.266;14.192;2024-02-04T06:31:16;7.66;81.84
75457;SHT31;64036;48.266;14.192;2024-02-04T06:33:44;7.67;81.80
75457;SHT31;64036;48.266;14.192;2024-02-04T06:36:14;7.69;81.75
75457;SHT31;64036;48.266;14.192;2024-02-04T06:38:42;7.70;81.70
75457;SHT31;64036;48.266;14.192;2024-02-04T06:41:13;7.72;81.70
75457;SHT31;64036;48.266;14.192;2024-02-04T06:43:38;7.72;81.66
75457;SHT31;64036;48.266;14.192;2024-02-04T06:46:04;7.74;81.62
75457;SHT31;64036;48.266;14.192;2024-02-04T06:48:30;7.74;81.60
75457;SHT31;64036;48.266;14.192;2024-02-04T06:50:59;7.77;81.52
75457;SHT31;64036;48.266;14.192;2024-02-04T06:53:33;7.78;81.50
75457;SHT31;64036;48.266;14.192;2024-02-04T06:55:59;7.80;81.51
75457;SHT31;64036;48.266;14.192;2024-02-04T06:58:27;7.80;81.48
75457;SHT31;64036;48.266;14.192;2024-02-04T07:00:53;7.81;81.42
75457;SHT31;64036;48.266;14.192;2024-02-04T07:03:28;7.82;81.40
75457;SHT31;64036;48.266;14.192;2024-02-04T07:05:54;7.82;81.44
75457;SHT31;64036;48.266;14.192;2024-02-04T07:08:26;7.81;81.49
75457;SHT31;64036;48.266;14.192;2024-02-04T07:10:54;7.80;81.56
75457;SHT31;64036;48.266;14.192;2024-02-04T07:13:23;7.79;81.68
75457;SHT31;64036;48.266;14.192;2024-02-04T07:15:51;7.78;81.72
75457;SHT31;64036;48.266;14.192;2024-02-04T07:18:16;7.78;81.74
75457;SHT31;64036;48.266;14.192;2024-02-04T07:20:43;7.78;81.80
75457;SHT31;64036;48.266;14.192;2024-02-04T07:23:11;7.77;81.83
75457;SHT31;64036;48.266;14.192;2024-02-04T07:25:39;7.77;81.90
75457;SHT31;64036;48.266;14.192;2024-02-04T07:28:05;7.77;81.95
75457;SHT31;64036;48.266;14.192;2024-02-04T07:30:30;7.77;82.06
75457;SHT31;64036;48.266;14.192;2024-02-04T07:32:58;7.76;82.10
75457;SHT31;64036;48.266;14.192;2024-02-04T07:35:24;7.77;82.10
75457;SHT31;64036;48.266;14.192;2024-02-04T07:37:49;7.78;82.06
75457;SHT31;64036;48.266;14.192;2024-02-04T07:40:15;7.78;82.06
75457;SHT31;64036;48.266;14.192;2024-02-04T07:42:41;7.78;82.02
75457;SHT31;64036;48.266;14.192;2024-02-04T07:45:06;7.80;81.99
75457;SHT31;64036;48.266;14.192;2024-02-04T07:47:38;7.82;81.94
75457;SHT31;64036;48.266;14.192;2024-02-04T07:50:04;7.83;81.90
75457;SHT31;64036;48.266;14.192;2024-02-04T07:52:36;7.84;81.90
75457;SHT31;64036;48.266;14.192;2024-02-04T07:55:01;7.84;81.95
75457;SHT31;64036;48.266;14.192;2024-02-04T07:57:27;7.85;82.00
75457;SHT31;64036;48.266;14.192;2024-02-04T07:59:52;7.86;82.01
75457;SHT31;64036;48.266;14.192;2024-02-04T08:02:18;7.85;82.09
75457;SHT31;64036;48.266;14.192;2024-02-04T08:04:43;7.84;82.20
75457;SHT31;64036;48.266;14.192;2024-02-04T08:07:09;7.86;82.29
75457;SHT31;64036;48.266;14.192;2024-02-04T08:09:37;7.84;82.38
75457;SHT31;64036;48.266;14.192;2024-02-04T08:12:05;7.85;82.39
75457;SHT31;64036;48.266;14.192;2024-02-04T08:14:36;7.85;82.39
75457;SHT31;64036;48.266;14.192;2024-02-04T08:17:01;7.86;82.39
75457;SHT31;64036;48.266;14.192;2024-02-04T08:19:27;7.87;82.40
75457;SHT31;64036;48.266;14.192;2024-02-04T08:21:55;7.89;82.40
75457;SHT31;64036;48.266;14.192;2024-02-04T08:24:21;7.91;82.49
75457;SHT31;64036;48.266;14.192;2024-02-04T08:26:52;7.92;82.49
75457;SHT31;64036;48.266;14.192;2024-02-04T08:29:18;7.93;82.49
75457;SHT31;64036;48.266;14.192;2024-02-04T08:31:43;7.94;82.48
75457;SHT31;64036;48.266;14.192;2024-02-04T08:34:09;7.93;82.49
75457;SHT31;64036;48.266;14.192;2024-02-04T08:36:35;7.94;82.43
75457;SHT31;64036;48.266;14.192;2024-02-04T08:39:01;7.93;82.50
75457;SHT31;64036;48.266;14.192;2024-02-04T08:41:26;7.93;82.54
75457;SHT31;64036;48.266;14.192;2024-02-04T08:43:52;7.93;82.63
75457;SHT31;64036;48.266;14.192;2024-02-04T08:46:18;7.94;82.75
75457;SHT31;64036;48.266;14.192;2024-02-04T08:48:43;7.94;82.98
75457;SHT31;64036;48.266;14.192;2024-02-04T08:51:12;7.97;83.09
75457;SHT31;64036;48.266;14.192;2024-02-04T08:53:41;7.97;83.11
75457;SHT31;64036;48.266;14.192;2024-02-04T08:56:11;7.96;83.14
75457;SHT31;64036;48.266;14.192;2024-02-04T08:58:37;7.98;83.27
75457;SHT31;64036;48.266;14.192;2024-02-04T09:01:03;8.01;83.32
75457;SHT31;64036;48.266;14.192;2024-02-04T09:03:30;8.03;83.40
75457;SHT31;64036;48.266;14.192;2024-02-04T09:05:56;8.03;83.46
75457;SHT31;64036;48.266;14.192;2024-02-04T09:08:22;8.06;83.50
75457;SHT31;64036;48.266;14.192;2024-02-04T09:10:50;8.09;83.45
75457;SHT31;64036;48.266;14.192;2024-02-04T09:13:16;8.13;83.40
75457;SHT31;64036;48.266;14.192;2024-02-04T09:15:44;8.17;83.31
75457;SHT31;64036;48.266;14.192;2024-02-04T09:18:10;8.22;83.23
75457;SHT31;64036;48.266;14.192;2024-02-04T09:20:35;8.25;83.24
75457;SHT31;64036;48.266;14.192;2024-02-04T09:23:01;8.29;83.04
75457;SHT31;64036;48.266;14.192;2024-02-04T09:25:29;8.35;82.86
75457;SHT31;64036;48.266;14.192;2024-02-04T09:27:54;8.45;82.81
75457;SHT31;64036;48.266;14.192;2024-02-04T09:30:20;8.55;82.55
75457;SHT31;64036;48.266;14.192;2024-02-04T09:32:46;8.63;82.29
75457;SHT31;64036;48.266;14.192;2024-02-04T09:35:12;8.68;81.94
75457;SHT31;64036;48.266;14.192;2024-02-04T09:37:37;8.71;81.66
75457;SHT31;64036;48.266;14.192;2024-02-04T09:40:03;8.73;81.37
75457;SHT31;64036;48.266;14.192;2024-02-04T09:42:29;8.78;81.23
75457;SHT31;64036;48.266;14.192;2024-02-04T09:44:56;8.85;81.31
75457;SHT31;64036;48.266;14.192;2024-02-04T09:47:22;8.98;81.05
75457;SHT31;64036;48.266;14.192;2024-02-04T09:49:50;9.08;80.52
75457;SHT31;64036;48.266;14.192;2024-02-04T09:52:21;9.13;80.28
75457;SHT31;64036;48.266;14.192;2024-02-04T09:54:59;9.13;79.87
75457;SHT31;64036;48.266;14.192;2024-02-04T09:57:26;9.15;79.96
75457;SHT31;64036;48.266;14.192;2024-02-04T09:59:51;9.21;80.05
75457;SHT31;64036;48.266;14.192;2024-02-04T10:02:17;9.29;79.83
75457;SHT31;64036;48.266;14.192;2024-02-04T10:04:43;9.33;79.45
75457;SHT31;64036;48.266;14.192;2024-02-04T10:07:09;9.30;79.50
75457;SHT31;64036;48.266;14.192;2024-02-04T10:09:35;9.24;79.48
75457;SHT31;64036;48.266;14.192;2024-02-04T10:12:00;9.17;79.46
75457;SHT31;64036;48.266;14.192;2024-02-04T10:14:30;9.13;79.49
75457;SHT31;64036;48.266;14.192;2024-02-04T10:16:55;9.09;79.52
75457;SHT31;64036;48.266;14.192;2024-02-04T10:19:25;9.07;79.62
75457;SHT31;64036;48.266;14.192;2024-02-04T10:22:02;9.07;79.62
75457;SHT31;64036;48.266;14.192;2024-02-04T10:24:31;9.05;79.55
75457;SHT31;64036;48.266;14.192;2024-02-04T10:26:57;9.02;79.55
75457;SHT31;64036;48.266;14.192;2024-02-04T10:29:28;9.00;79.72
75457;SHT31;64036;48.266;14.192;2024-02-04T10:31:57;9.00;79.70
75457;SHT31;64036;48.266;14.192;2024-02-04T10:34:23;9.07;79.70
75457;SHT31;64036;48.266;14.192;2024-02-04T10:36:51;9.17;79.57
75457;SHT31;64036;48.266;14.192;2024-02-04T10:39:16;9.25;79.51
75457;SHT31;64036;48.266;14.192;2024-02-04T10:41:49;9.31;79.41
75457;SHT31;64036;48.266;14.192;2024-02-04T10:44:23;9.33;79.37
75457;SHT31;64036;48.266;14.192;2024-02-04T10:46:50;9.29;78.99
75457;SHT31;64036;48.266;14.192;2024-02-04T10:49:17;9.23;79.03
75457;SHT31;64036;48.266;14.192;2024-02-04T10:51:44;9.20;78.94
75457;SHT31;64036;48.266;14.192;2024-02-04T10:54:16;9.18;79.03
75457;SHT31;64036;48.266;14.192;2024-02-04T10:56:46;9.18;78.97
75457;SHT31;64036;48.266;14.192;2024-02-04T10:59:13;9.20;78.80
75457;SHT31;64036;48.266;14.192;2024-02-04T11:01:46;9.23;78.45
75457;SHT31;64036;48.266;14.192;2024-02-04T11:04:14;9.26;78.32
75457;SHT31;64036;48.266;14.192;2024-02-04T11:06:42;9.31;78.23
75457;SHT31;64036;48.266;14.192;2024-02-04T11:09:08;9.34;77.97
75457;SHT31;64036;48.266;14.192;2024-02-04T11:11:35;9.38;77.98
75457;SHT31;64036;48.266;14.192;2024-02-04T11:14:02;9.41;77.97
75457;SHT31;64036;48.266;14.192;2024-02-04T11:25:42;9.43;77.68
75457;SHT31;64036;48.266;14.192;2024-02-04T11:28:11;9.48;77.71
75457;SHT31;64036;48.266;14.192;2024-02-04T11:30:37;9.49;77.69
75457;SHT31;64036;48.266;14.192;2024-02-04T11:33:03;9.50;77.72
75457;SHT31;64036;48.266;14.192;2024-02-04T11:35:29;9.51;77.63
75457;SHT31;64036;48.266;14.192;2024-02-04T11:37:55;9.54;77.70
75457;SHT31;64036;48.266;14.192;2024-02-04T11:40:21;9.54;77.60
75457;SHT31;64036;48.266;14.192;2024-02-04T11:42:49;9.56;77.53
75457;SHT31;64036;48.266;14.192;2024-02-04T11:45:15;9.60;77.42
75457;SHT31;64036;48.266;14.192;2024-02-04T11:47:42;9.62;77.31
75457;SHT31;64036;48.266;14.192;2024-02-04T11:50:08;9.62;77.13
75457;SHT31;64036;48.266;14.192;2024-02-04T11:52:34;9.64;77.21
75457;SHT31;64036;48.266;14.192;2024-02-04T11:55:00;9.66;77.30
75457;SHT31;64036;48.266;14.192;2024-02-04T11:57:26;9.71;77.12
75457;SHT31;64036;48.266;14.192;2024-02-04T11:59:54;9.75;77.00
75457;SHT31;64036;48.266;14.192;2024-02-04T12:02:20;9.80;77.01
75457;SHT31;64036;48.266;14.192;2024-02-04T12:04:46;9.85;76.78
75457;SHT31;64036;48.266;14.192;2024-02-04T12:07:13;9.86;76.49
75457;SHT31;64036;48.266;14.192;2024-02-04T12:09:39;9.87;76.45
75457;SHT31;64036;48.266;14.192;2024-02-04T12:12:05;9.91;76.50
75457;SHT31;64036;48.266;14.192;2024-02-04T12:14:31;9.97;76.44
75457;SHT31;64036;48.266;14.192;2024-02-04T12:16:57;10.02;76.34
75457;SHT31;64036;48.266;14.192;2024-02-04T12:19:31;10.08;76.20
75457;SHT31;64036;48.266;14.192;2024-02-04T12:21:57;10.16;75.96
75457;SHT31;64036;48.266;14.192;2024-02-04T12:24:23;10.24;76.00
75457;SHT31;64036;48.266;14.192;2024-02-04T12:26:48;10.29;75.92
75457;SHT31;64036;48.266;14.192;2024-02-04T12:29:16;10.31;75.78
75457;SHT31;64036;48.266;14.192;2024-02-04T12:31:42;10.32;75.83
75457;SHT31;64036;48.266;14.192;2024-02-04T12:34:07;10.33;75.64
75457;SHT31;64036;48.266;14.192;2024-02-04T12:36:33;10.30;75.37
75457;SHT31;64036;48.266;14.192;2024-02-04T12:38:59;10.28;75.25
75457;SHT31;64036;48.266;14.192;2024-02-04T12:41:26;10.27;75.33
75457;SHT31;64036;48.266;14.192;2024-02-04T12:43:53;10.31;75.29
75457;SHT31;64036;48.266;14.192;2024-02-04T12:46:19;10.35;75.39
75457;SHT31;64036;48.266;14.192;2024-02-04T12:48:50;10.38;75.23
75457;SHT31;64036;48.266;14.192;2024-02-04T12:51:25;10.43;75.23
75457;SHT31;64036;48.266;14.192;2024-02-04T12:54:11;10.48;75.18
75457;SHT31;64036;48.266;14.192;2024-02-04T12:56:53;10.53;75.11
75457;SHT31;64036;48.266;14.192;2024-02-04T12:59:29;10.55;75.04
75457;SHT31;64036;48.266;14.192;2024-02-04T13:01:57;10.56;74.90
75457;SHT31;64036;48.266;14.192;2024-02-04T13:04:23;10.56;74.85
75457;SHT31;64036;48.266;14.192;2024-02-04T13:06:50;10.58;74.92
75457;SHT31;64036;48.266;14.192;2024-02-04T13:09:15;10.61;74.66
75457;SHT31;64036;48.266;14.192;2024-02-04T13:11:44;10.66;74.80
75457;SHT31;64036;48.266;14.192;2024-02-04T13:14:10;10.67;74.68
75457;SHT31;64036;48.266;14.192;2024-02-04T13:16:36;10.67;74.72
75457;SHT31;64036;48.266;14.192;2024-02-04T13:19:03;10.69;74.71
75457;SHT31;64036;48.266;14.192;2024-02-04T13:21:28;10.66;74.84
75457;SHT31;64036;48.266;14.192;2024-02-04T13:23:54;10.60;74.76
75457;SHT31;64036;48.266;14.192;2024-02-04T13:26:20;10.53;74.86
75457;SHT31;64036;48.266;14.192;2024-02-04T13:28:46;10.48;74.87
75457;SHT31;64036;48.266;14.192;2024-02-04T13:31:11;10.44;74.98
75457;SHT31;64036;48.266;14.192;2024-02-04T13:33:40;10.40;75.17
75457;SHT31;64036;48.266;14.192;2024-02-04T13:36:08;10.36;75.24
75457;SHT31;64036;48.266;14.192;2024-02-04T13:38:34;10.34;75.10
75457;SHT31;64036;48.266;14.192;2024-02-04T13:41:01;10.29;75.18
75457;SHT31;64036;48.266;14.192;2024-02-04T13:43:27;10.27;75.14
75457;SHT31;64036;48.266;14.192;2024-02-04T13:45:53;10.23;74.94
75457;SHT31;64036;48.266;14.192;2024-02-04T13:48:18;10.22;75.03
75457;SHT31;64036;48.266;14.192;2024-02-04T13:50:45;10.20;75.28
75457;SHT31;64036;48.266;14.192;2024-02-04T13:53:11;10.18;75.21
75457;SHT31;64036;48.266;14.192;2024-02-04T13:55:36;10.14;75.07
75457;SHT31;64036;48.266;14.192;2024-02-04T13:58:03;10.13;74.92
75457;SHT31;64036;48.266;14.192;2024-02-04T14:00:28;10.12;75.05
75457;SHT31;64036;48.266;14.192;2024-02-04T14:02:54;10.11;75.18
75457;SHT31;64036;48.266;14.192;2024-02-04T14:05:20;10.10;75.30
75457;SHT31;64036;48.266;14.192;2024-02-04T14:07:45;10.10;75.20
75457;SHT31;64036;48.266;14.192;2024-02-04T14:10:11;10.09;75.15
75457;SHT31;64036;48.266;14.192;2024-02-04T14:12:39;10.07;75.18
75457;SHT31;64036;48.266;14.192;2024-02-04T14:15:06;10.06;75.12
75457;SHT31;64036;48.266;14.192;2024-02-04T14:17:32;10.07;75.03
75457;SHT31;64036;48.266;14.192;2024-02-04T14:19:58;10.08;75.11
75457;SHT31;64036;48.266;14.192;2024-02-04T14:22:24;10.09;75.12
75457;SHT31;64036;48.266;14.192;2024-02-04T14:24:49;10.09;74.91
75457;SHT31;64036;48.266;14.192;2024-02-04T14:27:15;10.10;75.01
75457;SHT31;64036;48.266;14.192;2024-02-04T14:29:41;10.11;75.11
75457;SHT31;64036;48.266;14.192;2024-02-04T14:32:07;10.13;75.03
75457;SHT31;64036;48.266;14.192;2024-02-04T14:34:34;10.15;75.09
75457;SHT31;64036;48.266;14.192;2024-02-04T14:36:59;10.16;75.08
75457;SHT31;64036;48.266;14.192;2024-02-04T14:39:25;10.16;75.04
75457;SHT31;64036;48.266;14.192;2024-02-04T14:41:51;10.17;74.83
75457;SHT31;64036;48.266;14.192;2024-02-04T14:44:19;10.18;74.65
75457;SHT31;64036;48.266;14.192;2024-02-04T14:46:45;10.18;74.54
75457;SHT31;64036;48.266;14.192;2024-02-04T14:49:14;10.19;74.67
75457;SHT31;64036;48.266;14.192;2024-02-04T14:51:39;10.20;74.65
75457;SHT31;64036;48.266;14.192;2024-02-04T14:54:06;10.21;74.70
75457;SHT31;64036;48.266;14.192;2024-02-04T14:56:40;10.20;74.78
75457;SHT31;64036;48.266;14.192;2024-02-04T14:59:09;10.20;74.82
75457;SHT31;64036;48.266;14.192;2024-02-04T15:01:35;10.20;74.80
75457;SHT31;64036;48.266;14.192;2024-02-04T15:04:02;10.19;74.82
75457;SHT31;64036;48.266;14.192;2024-02-04T15:06:28;10.19;74.89
75457;SHT31;64036;48.266;14.192;2024-02-04T15:08:57;10.18;74.81
75457;SHT31;64036;48.266;14.192;2024-02-04T15:11:26;10.17;74.86
75457;SHT31;64036;48.266;14.192;2024-02-04T15:13:54;10.15;74.95
75457;SHT31;64036;48.266;14.192;2024-02-04T15:16:20;10.15;75.00
75457;SHT31;64036;48.266;14.192;2024-02-04T15:18:46;10.13;75.08
75457;SHT31;64036;48.266;14.192;2024-02-04T15:21:12;10.11;75.19
75457;SHT31;64036;48.266;14.192;2024-02-04T15:23:39;10.11;75.19
75457;SHT31;64036;48.266;14.192;2024-02-04T15:26:06;10.09;75.20
75457;SHT31;64036;48.266;14.192;2024-02-04T15:28:33;10.08;75.21
75457;SHT31;64036;48.266;14.192;2024-02-04T15:30:59;10.08;75.23
75457;SHT31;64036;48.266;14.192;2024-02-04T15:33:24;10.06;75.29
75457;SHT31;64036;48.266;14.192;2024-02-04T15:35:53;10.04;75.30
75457;SHT31;64036;48.266;14.192;2024-02-04T15:38:19;10.02;75.34
75457;SHT31;64036;48.266;14.192;2024-02-04T15:40:47;10.00;75.38
75457;SHT31;64036;48.266;14.192;2024-02-04T15:43:13;9.99;75.40
75457;SHT31;64036;48.266;14.192;2024-02-04T15:45:39;9.98;75.42
75457;SHT31;64036;48.266;14.192;2024-02-04T15:48:05;9.97;75.47